createdAt,value
2019-03-26T00:01:57.927Z,99631.14
2019-03-26T00:04:24.016Z,99637.52
2019-03-26T00:06:49.893Z,99642.23
2019-03-26T00:09:15.951Z,99650.04
2019-03-26T00:11:42.070Z,99651.78
2019-03-26T00:14:07.924Z,99647.78
2019-03-26T00:16:33.745Z,99659.34
2019-03-26T00:18:59.727Z,99665.37
2019-03-26T00:21:25.560Z,99676.26
2019-03-26T00:23:51.813Z,99685.67
2019-03-26T00:26:17.649Z,99694.57
2019-03-26T00:28:43.627Z,99695.80
2019-03-26T00:31:09.508Z,99702.92
2019-03-26T00:33:36.811Z,99709.64
2019-03-26T00:36:03.016Z,99715.33
2019-03-26T00:38:28.994Z,99723.05
2019-03-26T00:40:55.026Z,99729.50
2019-03-26T00:43:20.961Z,99746.10
2019-03-26T00:45:46.959Z,99750.09
2019-03-26T00:48:12.827Z,99751.85
2019-03-26T00:50:38.683Z,99762.34
2019-03-26T00:53:04.715Z,99777.92
2019-03-26T00:55:30.553Z,99789.27
2019-03-26T00:57:56.491Z,99797.36
2019-03-26T01:00:37.734Z,99809.63
2019-03-26T01:03:04.061Z,99812.63
2019-03-26T01:05:33.717Z,99832.78
2019-03-26T01:07:59.658Z,99825.15
2019-03-26T01:10:26.001Z,99833.73
2019-03-26T01:12:51.854Z,99846.97
2019-03-26T01:15:17.767Z,99854.98
2019-03-26T01:17:43.995Z,99862.50
2019-03-26T01:20:10.206Z,99850.20
2019-03-26T01:22:36.071Z,99861.64
2019-03-26T01:25:02.744Z,99868.94
2019-03-26T01:27:28.575Z,99886.66
2019-03-26T01:29:54.625Z,99893.26
2019-03-26T01:32:20.487Z,99906.79
2019-03-26T01:34:46.537Z,99918.30
2019-03-26T01:37:12.495Z,99913.30
2019-03-26T01:39:38.376Z,99928.11
2019-03-26T01:42:04.342Z,99947.75
2019-03-26T01:44:30.222Z,99959.92
2019-03-26T01:46:56.068Z,99967.11
2019-03-26T01:49:22.194Z,99963.08
2019-03-26T01:51:48.090Z,99974.56
2019-03-26T01:54:13.915Z,99972.34
2019-03-26T01:56:39.952Z,99987.23
2019-03-26T01:59:05.797Z,99995.05
2019-03-26T02:01:31.720Z,99997.42
2019-03-26T02:03:57.925Z,99998.56
2019-03-26T02:06:23.911Z,100007.58
2019-03-26T02:08:49.979Z,100010.44
2019-03-26T02:11:15.901Z,100019.47
2019-03-26T02:13:41.850Z,100023.59
2019-03-26T02:16:07.767Z,100036.35
2019-03-26T02:18:33.636Z,100038.61
2019-03-26T02:20:59.719Z,100047.12
2019-03-26T02:23:25.666Z,100058.77
2019-03-26T02:25:51.541Z,100069.87
2019-03-26T02:28:17.380Z,100073.55
2019-03-26T02:30:43.506Z,100081.29
2019-03-26T02:33:09.417Z,100087.56
2019-03-26T02:35:35.239Z,100078.88
2019-03-26T02:38:01.361Z,100082.86
2019-03-26T02:40:27.233Z,100089.22
2019-03-26T02:42:53.047Z,100096.59
2019-03-26T02:45:19.195Z,100111.59
2019-03-26T02:47:45.242Z,100114.70
2019-03-26T02:50:11.571Z,100125.97
2019-03-26T02:52:37.538Z,100139.63
2019-03-26T02:55:04.574Z,100135.47
2019-03-26T02:57:30.618Z,100139.92
2019-03-26T02:59:56.573Z,100151.41
2019-03-26T03:02:22.417Z,100154.81
2019-03-26T03:04:48.389Z,100156.08
2019-03-26T03:07:17.778Z,100162.23
2019-03-26T03:09:43.716Z,100171.20
2019-03-26T03:12:09.733Z,100177.81
2019-03-26T03:14:35.593Z,100193.52
2019-03-26T03:17:01.549Z,100193.27
2019-03-26T03:19:27.446Z,100196.16
2019-03-26T03:21:53.566Z,100204.81
2019-03-26T03:24:19.431Z,100216.72
2019-03-26T03:26:45.480Z,100222.23
2019-03-26T03:29:11.344Z,100232.18
2019-03-26T03:31:37.357Z,100232.27
2019-03-26T03:34:03.281Z,100241.88
2019-03-26T03:36:29.352Z,100247.65
2019-03-26T03:38:55.251Z,100262.20
2019-03-26T03:41:21.088Z,100253.38
2019-03-26T03:43:46.931Z,100257.09
2019-03-26T03:46:13.136Z,100260.66
2019-03-26T03:48:39.319Z,100273.83
2019-03-26T03:51:06.640Z,100276.74
2019-03-26T03:53:32.943Z,100278.89
2019-03-26T03:56:00.105Z,100275.54
2019-03-26T03:58:28.114Z,100283.92
2019-03-26T04:00:53.999Z,100291.22
2019-03-26T04:03:20.059Z,100295.37
2019-03-26T04:05:46.009Z,100294.77
2019-03-26T04:08:15.296Z,100302.14
2019-03-26T04:10:41.122Z,100303.69
2019-03-26T04:13:07.200Z,100307.48
2019-03-26T04:15:35.084Z,100301.48
2019-03-26T04:18:01.300Z,100302.84
2019-03-26T04:20:27.299Z,100310.14
2019-03-26T04:22:53.256Z,100309.99
2019-03-26T04:25:19.281Z,100299.03
2019-03-26T04:27:45.344Z,100304.59
2019-03-26T04:30:15.005Z,100304.84
2019-03-26T04:32:40.983Z,100305.53
2019-03-26T04:35:07.044Z,100309.52
2019-03-26T04:37:33.105Z,100319.20
2019-03-26T04:39:58.988Z,100311.12
2019-03-26T04:42:24.942Z,100314.72
2019-03-26T04:44:50.905Z,100321.75
2019-03-26T04:47:17.079Z,100327.90
2019-03-26T04:49:42.940Z,100343.89
2019-03-26T04:52:08.892Z,100340.11
2019-03-26T04:54:34.774Z,100337.59
2019-03-26T04:57:00.608Z,100340.05
2019-03-26T04:59:26.502Z,100342.11
2019-03-26T05:01:52.350Z,100360.41
2019-03-26T05:04:18.207Z,100351.03
2019-03-26T05:06:44.081Z,100357.77
2019-03-26T05:09:10.097Z,100371.35
2019-03-26T05:11:35.947Z,100359.36
2019-03-26T05:14:01.831Z,100358.53
2019-03-26T05:16:27.675Z,100367.94
2019-03-26T05:18:53.518Z,100368.47
2019-03-26T05:21:19.361Z,100367.05
2019-03-26T05:23:45.299Z,100371.86
2019-03-26T05:26:11.177Z,100371.40
2019-03-26T05:28:37.019Z,100373.16
2019-03-26T05:31:03.070Z,100373.83
2019-03-26T05:33:28.972Z,100372.84
2019-03-26T05:35:54.830Z,100374.37
2019-03-26T05:38:20.762Z,100376.28
2019-03-26T05:40:46.707Z,100409.55
2019-03-26T05:43:12.661Z,100373.41
2019-03-26T05:45:38.650Z,100375.70
2019-03-26T05:48:04.496Z,100385.70
2019-03-26T05:50:30.383Z,100380.83
2019-03-26T05:52:56.288Z,100388.87
2019-03-26T05:55:22.319Z,100383.80
2019-03-26T05:57:48.256Z,100392.94
2019-03-26T06:00:17.937Z,100398.14
2019-03-26T06:02:43.981Z,100389.71
2019-03-26T06:05:10.130Z,100391.34
2019-03-26T06:07:36.081Z,100383.66
2019-03-26T06:10:07.335Z,100378.12
2019-03-26T06:12:33.201Z,100365.87
2019-03-26T06:14:59.043Z,100371.19
2019-03-26T06:17:25.132Z,100361.92
2019-03-26T06:19:51.060Z,100361.60
2019-03-26T06:22:16.980Z,100360.32
2019-03-26T06:24:42.873Z,100357.86
2019-03-26T06:27:08.821Z,100361.64
2019-03-26T06:29:34.670Z,100360.56
2019-03-26T06:32:01.113Z,100367.20
2019-03-26T06:34:27.011Z,100366.98
2019-03-26T06:36:52.949Z,100375.27
2019-03-26T06:39:18.955Z,100376.36
2019-03-26T06:41:44.788Z,100370.96
2019-03-26T06:44:10.751Z,100377.55
2019-03-26T06:46:36.615Z,100378.59
2019-03-26T06:49:02.667Z,100370.41
2019-03-26T06:51:28.676Z,100382.73
2019-03-26T06:53:54.507Z,100387.74
2019-03-26T06:56:20.351Z,100389.91
2019-03-26T06:58:46.451Z,100393.51
2019-03-26T07:01:15.175Z,100420.59
2019-03-26T07:03:41.137Z,100385.41
2019-03-26T07:06:07.113Z,100372.80
2019-03-26T07:08:32.953Z,100376.77
2019-03-26T07:10:59.030Z,100379.67
2019-03-26T07:13:24.995Z,100389.31
2019-03-26T07:15:50.849Z,100380.33
2019-03-26T07:18:16.760Z,100392.98
2019-03-26T07:20:43.009Z,100381.98
2019-03-26T07:23:08.839Z,100385.02
2019-03-26T07:25:34.939Z,100383.06
2019-03-26T07:28:01.051Z,100382.63
2019-03-26T07:30:35.139Z,100387.62
2019-03-26T07:33:01.054Z,100382.61
2019-03-26T07:35:27.094Z,100379.97
2019-03-26T07:37:52.961Z,100380.31
2019-03-26T07:40:18.994Z,100369.39
2019-03-26T07:42:44.850Z,100373.94
2019-03-26T07:45:10.968Z,100370.88
2019-03-26T07:47:36.937Z,100371.91
2019-03-26T07:50:04.901Z,100374.66
2019-03-26T07:52:33.544Z,100370.09
2019-03-26T07:54:59.579Z,100372.23
2019-03-26T07:57:25.616Z,100372.91
2019-03-26T07:59:51.602Z,100379.14
2019-03-26T08:02:17.435Z,100356.09
2019-03-26T08:04:43.273Z,100375.20
2019-03-26T08:07:09.275Z,100373.55
2019-03-26T08:09:35.329Z,100369.47
2019-03-26T08:12:01.369Z,100370.81
2019-03-26T08:14:27.341Z,100374.31
2019-03-26T08:16:53.182Z,100397.30
2019-03-26T08:19:19.322Z,100380.75
2019-03-26T08:21:45.292Z,100381.73
2019-03-26T08:24:11.247Z,100382.22
2019-03-26T08:26:37.129Z,100380.11
2019-03-26T08:29:03.187Z,100377.59
2019-03-26T08:31:29.288Z,100376.98
2019-03-26T08:33:55.137Z,100380.06
2019-03-26T08:36:20.997Z,100375.24
2019-03-26T08:38:46.879Z,100380.25
2019-03-26T08:41:12.732Z,100382.45
2019-03-26T08:43:40.931Z,100384.57
2019-03-26T08:46:06.438Z,100377.50
2019-03-26T08:48:32.494Z,100377.47
2019-03-26T08:50:58.418Z,100377.30
2019-03-26T08:53:24.419Z,100379.52
2019-03-26T08:55:50.389Z,100384.02
2019-03-26T08:58:16.227Z,100382.56
2019-03-26T09:00:42.080Z,100406.08
2019-03-26T09:03:08.028Z,100376.17
2019-03-26T09:05:34.148Z,100375.03
2019-03-26T09:08:00.568Z,100379.86
2019-03-26T09:10:28.495Z,100392.05
2019-03-26T09:12:54.425Z,100379.65
2019-03-26T09:15:20.495Z,100381.83
2019-03-26T09:17:46.344Z,100385.16
2019-03-26T09:20:13.171Z,100382.51
2019-03-26T09:22:39.106Z,100383.48
2019-03-26T09:25:05.768Z,100374.05
2019-03-26T09:27:31.886Z,100374.59
2019-03-26T09:29:57.751Z,100377.39
2019-03-26T09:32:23.589Z,100376.53
2019-03-26T09:34:49.574Z,100374.92
2019-03-26T09:37:15.518Z,100386.59
2019-03-26T09:39:41.363Z,100378.92
2019-03-26T09:42:07.215Z,100371.30
2019-03-26T09:44:33.074Z,100383.22
2019-03-26T09:46:59.069Z,100375.53
2019-03-26T09:49:24.988Z,100373.28
2019-03-26T09:51:50.936Z,100373.97
2019-03-26T09:54:16.830Z,100372.30
2019-03-26T09:56:42.737Z,100364.97
2019-03-26T09:59:08.615Z,100364.98
2019-03-26T10:01:34.503Z,100369.62
2019-03-26T10:04:00.364Z,100366.48
2019-03-26T10:06:26.357Z,100367.58
2019-03-26T10:08:53.038Z,100363.86
2019-03-26T10:11:19.023Z,100370.83
2019-03-26T10:13:44.935Z,100359.23
2019-03-26T10:16:10.795Z,100357.92
2019-03-26T10:18:36.705Z,100357.61
2019-03-26T10:21:02.784Z,100345.90
2019-03-26T10:23:28.629Z,100344.69
2019-03-26T10:25:54.474Z,100345.28
2019-03-26T10:28:20.458Z,100340.23
2019-03-26T10:30:46.420Z,100350.70
2019-03-26T10:33:12.616Z,100346.53
2019-03-26T10:35:38.715Z,100339.30
2019-03-26T10:38:04.939Z,100334.63
2019-03-26T10:40:32.704Z,100340.79
2019-03-26T10:42:59.459Z,100332.38
2019-03-26T10:45:25.449Z,100324.26
2019-03-26T10:47:51.331Z,100327.16
2019-03-26T10:50:17.263Z,100317.19
2019-03-26T10:52:43.234Z,100339.56
2019-03-26T10:55:09.328Z,100307.85
2019-03-26T10:57:35.181Z,100313.96
2019-03-26T11:00:01.619Z,100321.91
2019-03-26T11:02:27.844Z,100314.37
2019-03-26T11:04:53.899Z,100309.90
2019-03-26T11:07:19.955Z,100329.39
2019-03-26T11:09:45.908Z,100313.97
2019-03-26T11:14:37.782Z,100304.25
2019-03-26T11:17:03.863Z,100301.97
2019-03-26T11:19:29.893Z,100306.14
2019-03-26T11:21:55.855Z,100308.14
2019-03-26T11:24:21.672Z,100305.30
2019-03-26T11:26:47.702Z,100308.65
2019-03-26T11:29:13.765Z,100304.20
2019-03-26T11:31:39.614Z,100306.91
2019-03-26T11:34:05.456Z,100300.59
2019-03-26T11:36:31.400Z,100308.41
2019-03-26T11:38:57.329Z,100302.63
2019-03-26T11:41:23.372Z,100294.77
2019-03-26T11:43:49.264Z,100288.91
2019-03-26T11:46:15.188Z,100288.27
2019-03-26T11:48:41.377Z,100298.54
2019-03-26T11:51:07.432Z,100288.95
2019-03-26T11:53:33.392Z,100280.75
2019-03-26T11:55:59.274Z,100277.18
2019-03-26T11:58:30.678Z,100285.86
2019-03-26T12:00:53.426Z,100284.08
2019-03-26T12:03:19.423Z,100290.59
2019-03-26T12:05:45.687Z,100284.36
2019-03-26T12:08:11.861Z,100291.19
2019-03-26T12:10:37.774Z,100271.03
2019-03-26T12:13:03.874Z,100294.08
2019-03-26T12:15:29.858Z,100283.35
2019-03-26T12:17:55.812Z,100276.93
2019-03-26T12:20:21.832Z,100287.80
2019-03-26T12:22:47.825Z,100289.06
2019-03-26T12:25:13.961Z,100288.66
2019-03-26T12:27:39.871Z,100277.66
2019-03-26T12:30:08.063Z,100285.36
2019-03-26T12:32:34.104Z,100270.56
2019-03-26T12:35:00.406Z,100267.33
2019-03-26T12:37:26.343Z,100266.99
2019-03-26T12:39:59.381Z,100269.80
2019-03-26T12:42:20.307Z,100261.07
2019-03-26T12:44:46.218Z,100258.53
2019-03-26T12:47:12.065Z,100253.48
2019-03-26T12:49:38.020Z,100253.19
2019-03-26T12:52:03.953Z,100257.23
2019-03-26T12:54:29.870Z,100243.53
2019-03-26T12:56:55.818Z,100252.97
2019-03-26T12:59:21.645Z,100256.33
2019-03-26T13:01:47.651Z,100256.45
2019-03-26T13:04:16.784Z,100247.59
2019-03-26T13:06:41.514Z,100250.02
2019-03-26T13:09:08.105Z,100246.84
2019-03-26T13:11:33.939Z,100243.48
2019-03-26T13:14:18.628Z,100260.87
2019-03-26T13:16:44.595Z,100246.95
2019-03-26T13:19:10.533Z,100255.59
2019-03-26T13:21:37.661Z,100251.31
2019-03-26T13:24:03.851Z,100251.10
2019-03-26T13:26:29.796Z,100247.21
2019-03-26T13:28:55.673Z,100237.33
2019-03-26T13:31:21.501Z,100232.63
2019-03-26T13:33:47.501Z,100235.88
2019-03-26T13:36:13.435Z,100239.91
2019-03-26T13:38:39.377Z,100234.30
2019-03-26T13:41:05.369Z,100231.39
2019-03-26T13:43:31.318Z,100227.02
2019-03-26T13:45:57.150Z,100228.50
2019-03-26T13:48:23.106Z,100231.77
2019-03-26T13:50:49.033Z,100235.11
2019-03-26T13:53:14.928Z,100234.97
2019-03-26T13:55:40.958Z,100225.30
2019-03-26T13:58:06.915Z,100227.88
2019-03-26T14:00:34.687Z,100234.68
2019-03-26T14:03:00.757Z,100239.44
2019-03-26T14:05:26.794Z,100237.34
2019-03-26T14:07:52.788Z,100237.09
2019-03-26T14:10:19.034Z,100233.84
2019-03-26T14:12:44.994Z,100241.19
2019-03-26T14:15:11.222Z,100240.25
2019-03-26T14:17:37.237Z,100241.81
2019-03-26T14:20:04.465Z,100242.34
2019-03-26T14:22:30.345Z,100243.48
2019-03-26T14:24:56.161Z,100239.91
2019-03-26T14:27:22.052Z,100253.03
2019-03-26T14:29:48.009Z,100248.73
2019-03-26T14:32:14.085Z,100234.89
2019-03-26T14:34:40.033Z,100234.39
2019-03-26T14:37:05.963Z,100239.22
2019-03-26T14:39:31.816Z,100237.86
2019-03-26T14:41:57.931Z,100239.74
2019-03-26T14:44:23.776Z,100232.83
2019-03-26T14:46:49.727Z,100238.59
2019-03-26T14:49:15.669Z,100243.23
2019-03-26T14:51:41.530Z,100237.20
2019-03-26T14:54:07.517Z,100233.61
2019-03-26T14:56:33.453Z,100238.97
2019-03-26T14:58:59.450Z,100237.61
2019-03-26T15:01:25.273Z,100239.10
2019-03-26T15:03:51.122Z,100241.64
2019-03-26T15:06:17.182Z,100236.42
2019-03-26T15:08:43.253Z,100248.83
2019-03-26T15:11:09.204Z,100243.83
2019-03-26T15:13:35.303Z,100245.00
2019-03-26T15:16:01.282Z,100270.19
2019-03-26T15:18:27.168Z,100262.59
2019-03-26T15:20:53.205Z,100264.09
2019-03-26T15:23:19.195Z,100277.92
2019-03-26T15:25:45.216Z,100252.12
2019-03-26T15:28:11.903Z,100261.96
2019-03-26T15:30:38.203Z,100254.75
2019-03-26T15:33:04.365Z,100259.17
2019-03-26T15:35:30.318Z,100245.62
2019-03-26T15:37:56.197Z,100241.89
2019-03-26T15:40:22.086Z,100224.41
2019-03-26T15:42:47.904Z,100223.11
2019-03-26T15:45:13.987Z,100214.16
2019-03-26T15:47:39.939Z,100207.92
2019-03-26T15:50:06.310Z,100211.97
2019-03-26T15:52:32.278Z,100202.30
2019-03-26T15:54:58.294Z,100206.64
2019-03-26T15:57:24.178Z,100199.52
2019-03-26T15:59:50.168Z,100191.58
2019-03-26T16:02:16.006Z,100194.52
2019-03-26T16:04:41.840Z,100201.00
2019-03-26T16:07:07.680Z,100199.50
2019-03-26T16:09:33.640Z,100202.20
2019-03-26T16:11:59.737Z,100200.86
2019-03-26T16:14:28.049Z,100205.78
2019-03-26T16:16:53.571Z,100203.78
2019-03-26T16:19:31.893Z,100205.45
2019-03-26T16:21:47.313Z,100217.81
2019-03-26T16:24:13.227Z,100221.95
2019-03-26T16:26:39.081Z,100226.79
2019-03-26T16:29:05.057Z,100226.56
2019-03-26T16:31:31.223Z,100232.33
2019-03-26T16:33:57.108Z,100225.91
2019-03-26T16:36:23.039Z,100230.05
2019-03-26T16:38:49.282Z,100224.26
2019-03-26T16:41:15.197Z,100232.59
2019-03-26T16:43:41.175Z,100222.74
2019-03-26T16:46:07.260Z,100230.74
2019-03-26T16:48:33.077Z,100228.36
2019-03-26T16:50:59.023Z,100229.16
2019-03-26T16:53:24.883Z,100232.74
2019-03-26T16:55:50.730Z,100233.92
2019-03-26T16:58:16.583Z,100238.31
2019-03-26T17:00:42.562Z,100239.91
2019-03-26T17:03:08.425Z,100239.11
2019-03-26T17:05:34.387Z,100244.59
2019-03-26T17:08:00.342Z,100248.44
2019-03-26T17:10:26.282Z,100249.81
2019-03-26T17:12:52.142Z,100279.70
2019-03-26T17:15:18.074Z,100253.72
2019-03-26T17:17:43.921Z,100257.53
2019-03-26T17:20:09.906Z,100256.72
2019-03-26T17:22:35.761Z,100255.14
2019-03-26T17:25:03.918Z,100256.41
2019-03-26T17:27:29.754Z,100263.08
2019-03-26T17:29:55.779Z,100269.80
2019-03-26T17:32:21.771Z,100270.04
2019-03-26T17:34:47.656Z,100268.97
2019-03-26T17:37:13.513Z,100273.91
2019-03-26T17:39:39.336Z,100271.91
2019-03-26T17:42:16.656Z,100280.22
2019-03-26T17:44:33.039Z,100278.15
2019-03-26T17:46:59.089Z,100280.87
2019-03-26T17:49:25.167Z,100289.83
2019-03-26T17:51:51.196Z,100285.98
2019-03-26T17:54:17.032Z,100299.07
2019-03-26T17:56:42.983Z,100302.50
2019-03-26T17:59:08.962Z,100310.02
2019-03-26T18:01:35.001Z,100307.52
2019-03-26T18:04:01.067Z,100315.41
2019-03-26T18:06:26.943Z,100317.15
2019-03-26T18:08:52.861Z,100327.78
2019-03-26T18:11:18.969Z,100323.27
2019-03-26T18:13:44.815Z,100329.55
2019-03-26T18:16:10.678Z,100331.30
2019-03-26T18:18:36.600Z,100335.11
2019-03-26T18:21:02.644Z,100348.57
2019-03-26T18:23:28.510Z,100351.45
2019-03-26T18:25:54.552Z,100361.46
2019-03-26T18:28:20.589Z,100362.85
2019-03-26T18:30:46.424Z,100365.59
2019-03-26T18:33:12.270Z,100380.50
2019-03-26T18:35:38.156Z,100393.52
2019-03-26T18:38:04.484Z,100393.77
2019-03-26T18:40:30.441Z,100404.09
2019-03-26T18:42:56.460Z,100398.98
2019-03-26T18:45:22.579Z,100409.35
2019-03-26T18:47:48.557Z,100414.29
2019-03-26T18:50:14.821Z,100420.43
2019-03-26T18:52:40.800Z,100422.53
2019-03-26T18:55:06.939Z,100429.89
2019-03-26T18:57:32.964Z,100432.84
2019-03-26T18:59:58.820Z,100436.80
2019-03-26T19:02:24.842Z,100441.07
2019-03-26T19:04:50.841Z,100458.95
2019-03-26T19:07:17.778Z,100437.59
2019-03-26T19:09:43.929Z,100440.18
2019-03-26T19:12:09.820Z,100440.64
2019-03-26T19:14:35.663Z,100453.64
2019-03-26T19:17:01.629Z,100452.09
2019-03-26T19:19:27.784Z,100456.91
2019-03-26T19:21:53.678Z,100465.59
2019-03-26T19:24:19.532Z,100466.05
2019-03-26T19:26:45.428Z,100470.87
2019-03-26T19:29:11.257Z,100473.84
2019-03-26T19:31:37.346Z,100479.66
2019-03-26T19:34:03.214Z,100480.47
2019-03-26T19:36:29.243Z,100487.89
2019-03-26T19:38:55.121Z,100486.48
2019-03-26T19:41:21.052Z,100483.36
2019-03-26T19:43:46.918Z,100488.58
2019-03-26T19:46:12.783Z,100488.77
2019-03-26T19:48:38.623Z,100484.36
2019-03-26T19:51:04.522Z,100488.30
2019-03-26T19:53:30.382Z,100497.05
2019-03-26T19:55:56.226Z,100500.59
2019-03-26T19:58:22.101Z,100498.02
2019-03-26T20:00:48.104Z,100500.67
2019-03-26T20:03:14.010Z,100498.02
2019-03-26T20:05:39.864Z,100505.16
2019-03-26T20:08:06.705Z,100505.69
2019-03-26T20:10:32.720Z,100521.47
2019-03-26T20:12:58.536Z,100514.69
2019-03-26T20:15:24.590Z,100519.27
2019-03-26T20:17:50.466Z,100523.50
2019-03-26T20:20:17.369Z,100523.84
2019-03-26T20:22:43.292Z,100548.00
2019-03-26T20:25:09.679Z,100533.93
2019-03-26T20:27:35.592Z,100532.42
2019-03-26T20:30:02.294Z,100542.56
2019-03-26T20:32:28.245Z,100543.55
2019-03-26T20:34:54.300Z,100548.45
2019-03-26T20:37:20.215Z,100550.19
2019-03-26T20:39:46.252Z,100554.02
2019-03-26T20:42:12.256Z,100553.15
2019-03-26T20:44:38.145Z,100262.52
2019-03-26T20:47:04.066Z,100563.28
2019-03-26T20:49:29.919Z,100562.91
2019-03-26T20:51:56.031Z,100567.42
2019-03-26T20:54:21.963Z,100569.98
2019-03-26T20:56:48.114Z,100575.40
2019-03-26T20:59:14.292Z,100573.09
2019-03-26T21:01:40.133Z,100576.46
2019-03-26T21:04:06.173Z,100578.73
2019-03-26T21:06:32.062Z,100573.55
2019-03-26T21:08:57.907Z,100574.41
2019-03-26T21:11:23.888Z,100578.94
2019-03-26T21:13:50.840Z,100574.84
2019-03-26T21:16:17.107Z,100582.59
2019-03-26T21:18:42.931Z,100586.01
2019-03-26T21:21:08.811Z,100585.96
2019-03-26T21:23:34.654Z,100583.27
2019-03-26T21:26:00.807Z,100592.14
2019-03-26T21:28:26.643Z,100595.55
2019-03-26T21:30:52.465Z,100602.24
2019-03-26T21:33:18.337Z,100597.95
2019-03-26T21:35:44.277Z,100602.95
2019-03-26T21:38:10.129Z,100605.95
2019-03-26T21:40:36.458Z,100605.74
2019-03-26T21:43:02.439Z,100608.88
2019-03-26T21:45:33.155Z,100612.57
2019-03-26T21:47:59.100Z,100605.17
2019-03-26T21:50:25.107Z,100614.52
2019-03-26T21:52:51.101Z,100621.16
2019-03-26T21:55:16.982Z,100616.82
2019-03-26T21:57:42.845Z,100618.80
2019-03-26T22:00:09.615Z,100614.66
2019-03-26T22:02:35.426Z,100623.56
2019-03-26T22:05:02.058Z,100622.29
2019-03-26T22:07:28.009Z,100632.82
2019-03-26T22:09:53.862Z,100633.34
2019-03-26T22:12:22.888Z,100631.73
2019-03-26T22:14:48.823Z,100637.91
2019-03-26T22:17:14.769Z,100644.69
2019-03-26T22:19:40.666Z,100638.84
2019-03-26T22:22:06.492Z,100644.55
2019-03-26T22:24:32.353Z,100638.27
2019-03-26T22:26:58.325Z,100639.65
2019-03-26T22:29:24.152Z,100642.29
2019-03-26T22:31:49.999Z,100648.16
2019-03-26T22:34:15.898Z,100651.33
2019-03-26T22:36:41.828Z,100658.40
2019-03-26T22:39:07.682Z,100655.38
2019-03-26T22:41:33.544Z,100660.17
2019-03-26T22:43:59.471Z,100659.12
2019-03-26T22:46:25.323Z,100654.41
2019-03-26T22:48:51.424Z,100660.16
2019-03-26T22:51:17.251Z,100654.50
2019-03-26T22:53:43.077Z,100651.12
2019-03-26T22:56:09.000Z,100657.72
2019-03-26T22:58:34.816Z,100653.58
2019-03-26T23:01:00.960Z,100655.05
2019-03-26T23:03:26.883Z,100669.53
2019-03-26T23:05:52.717Z,100660.30
2019-03-26T23:08:18.529Z,100664.41
2019-03-26T23:10:44.496Z,100664.81
2019-03-26T23:13:10.551Z,100655.81
2019-03-26T23:15:36.380Z,100656.20
2019-03-26T23:18:02.473Z,100664.42
2019-03-26T23:20:28.358Z,100660.54
2019-03-26T23:22:54.241Z,100664.50
2019-03-26T23:25:20.203Z,100672.92
2019-03-26T23:27:46.590Z,100674.70
2019-03-26T23:30:13.233Z,100668.45
2019-03-26T23:32:39.189Z,100670.05
2019-03-26T23:35:05.214Z,100664.72
2019-03-26T23:37:31.053Z,100671.73
2019-03-26T23:39:56.947Z,100672.88
2019-03-26T23:42:22.764Z,100669.03
2019-03-26T23:44:58.383Z,100674.58
2019-03-26T23:47:16.442Z,100668.91
2019-03-26T23:49:42.269Z,100666.97
2019-03-26T23:52:08.377Z,100662.70
2019-03-26T23:54:34.197Z,100660.63
2019-03-26T23:57:00.045Z,100655.34
2019-03-26T23:59:25.936Z,100654.00
